Time;durP1;ratioP1;P1;durP2;ratioP2;P2;SDS_P1;SDS_P2;PMS_P1;PMS_P2;Temp;Humidity;BMP_temperature;BMP_pressure;BME280_temperature;BME280_humidity;BME280_pressure;Samples;Min_cycle;Max_cycle;Signal;HPM_P1;HPM_P2
2023/06/06 00:00:40;;;;;;;1076.60;784.13;;;12.70;85.50;;;;;;5035269;28;20061;-88
2023/06/06 00:03:06;;;;;;;980.42;910.45;;;12.70;86.20;;;;;;5037288;28;20400;-88
2023/06/06 00:05:33;;;;;;;1999.90;999.90;;;12.70;86.40;;;;;;5035099;28;20035;-89
2023/06/06 00:07:59;;;;;;;1999.90;999.90;;;12.70;86.50;;;;;;5037331;28;20036;-89
2023/06/06 00:10:24;;;;;;;871.75;810.20;;;12.80;86.10;;;;;;5036426;28;20037;-89
2023/06/06 00:12:52;;;;;;;1203.32;903.08;;;12.70;86.50;;;;;;5035349;28;20142;-90
2023/06/06 00:15:19;;;;;;;941.28;876.08;;;12.70;86.20;;;;;;5040884;28;20040;-89
2023/06/06 00:17:45;;;;;;;921.90;855.80;;;12.60;86.10;;;;;;5038772;28;20025;-90
2023/06/06 00:20:11;;;;;;;1216.25;914.85;;;12.60;86.00;;;;;;5035254;28;20037;-88
2023/06/06 00:22:38;;;;;;;934.42;866.58;;;12.70;85.80;;;;;;5039371;28;20026;-89
2023/06/06 00:25:04;;;;;;;946.75;879.15;;;12.60;85.90;;;;;;5037660;28;20041;-88
2023/06/06 00:27:32;;;;;;;942.67;877.70;;;12.40;86.20;;;;;;5032726;28;20033;-88
2023/06/06 00:29:58;;;;;;;947.95;880.33;;;12.40;87.00;;;;;;5042082;28;20033;-88
2023/06/06 00:32:23;;;;;;;922.92;854.15;;;12.40;87.00;;;;;;5030980;28;20862;-88
2023/06/06 00:34:49;;;;;;;861.58;801.13;;;12.30;87.70;;;;;;5029890;28;20524;-89
2023/06/06 00:37:15;;;;;;;860.45;802.63;;;12.30;88.20;;;;;;5019848;28;20025;-88
2023/06/06 00:39:40;;;;;;;872.47;813.42;;;12.30;88.00;;;;;;5036317;28;20056;-89
2023/06/06 00:42:06;;;;;;;833.33;778.80;;;12.20;87.60;;;;;;5032268;28;20072;-89
2023/06/06 00:44:32;;;;;;;870.70;809.55;;;12.20;88.30;;;;;;4997648;28;20033;-88
2023/06/06 00:46:58;;;;;;;877.42;817.80;;;12.30;88.40;;;;;;5037025;28;20080;-89
2023/06/06 00:49:25;;;;;;;856.17;800.28;;;12.30;87.80;;;;;;5037246;28;20033;-89
2023/06/06 00:51:50;;;;;;;814.38;762.38;;;12.30;87.60;;;;;;5033536;28;20124;-88
2023/06/06 00:54:18;;;;;;;805.78;756.10;;;12.30;88.10;;;;;;5041477;28;20187;-88
2023/06/06 00:56:45;;;;;;;799.88;750.30;;;12.20;88.90;;;;;;5035584;28;20018;-89
2023/06/06 00:59:11;;;;;;;806.35;756.33;;;12.20;88.50;;;;;;5038742;28;20135;-88
2023/06/06 01:01:39;;;;;;;806.70;756.15;;;12.20;88.80;;;;;;5037068;28;20117;-88
2023/06/06 01:04:08;;;;;;;782.10;733.72;;;12.10;89.10;;;;;;5036546;28;20098;-89
2023/06/06 01:06:37;;;;;;;747.95;701.65;;;12.00;89.10;;;;;;5040326;28;20423;-89
2023/06/06 01:09:09;;;;;;;804.05;754.13;;;12.00;89.80;;;;;;5037411;28;20029;-88
2023/06/06 01:11:49;;;;;;;723.38;679.08;;;12.00;89.40;;;;;;5008835;28;20041;-89
2023/06/06 01:14:27;;;;;;;741.65;697.42;;;11.90;89.90;;;;;;5037677;28;20823;-89
2023/06/06 01:16:57;;;;;;;639.45;605.22;;;11.90;90.10;;;;;;5035319;28;20485;-89
2023/06/06 01:19:29;;;;;;;685.70;646.15;;;11.80;90.30;;;;;;5036819;28;20037;-89
2023/06/06 01:21:56;;;;;;;641.65;606.80;;;11.90;90.30;;;;;;5031120;28;20029;-89
2023/06/06 01:24:22;;;;;;;675.63;637.55;;;11.90;90.20;;;;;;5033296;28;20030;-90
2023/06/06 01:26:48;;;;;;;669.25;632.65;;;11.80;90.20;;;;;;5035625;28;20056;-89
2023/06/06 01:29:13;;;;;;;645.47;610.33;;;11.80;90.20;;;;;;5037688;28;20378;-91
2023/06/06 01:31:48;;;;;;;651.85;615.40;;;11.80;90.60;;;;;;5032321;28;20041;-92
2023/06/06 01:34:32;;;;;;;572.30;544.42;;;11.90;90.60;;;;;;5024919;28;20164;-90
2023/06/06 01:37:10;;;;;;;599.38;569.25;;;11.90;90.50;;;;;;5036007;28;20040;-90
2023/06/06 01:39:40;;;;;;;635.80;604.08;;;11.80;90.40;;;;;;5040235;28;20017;-89
2023/06/06 01:42:07;;;;;;;565.30;537.88;;;11.70;90.60;;;;;;5030663;28;20029;-89
2023/06/06 01:44:35;;;;;;;608.13;577.42;;;11.80;90.70;;;;;;5054208;28;20037;-88
2023/06/06 01:47:01;;;;;;;620.97;589.97;;;11.80;90.60;;;;;;5036730;28;20037;-91
2023/06/06 01:49:28;;;;;;;644.38;611.30;;;11.70;90.50;;;;;;5028569;28;20388;-90
2023/06/06 01:51:54;;;;;;;600.83;570.78;;;11.70;90.60;;;;;;5039798;28;20102;-90
2023/06/06 01:54:20;;;;;;;622.83;590.50;;;11.80;90.70;;;;;;5028255;28;20132;-89
2023/06/06 01:56:45;;;;;;;626.80;596.55;;;11.70;90.60;;;;;;5026802;28;20196;-90
2023/06/06 01:59:11;;;;;;;625.88;594.50;;;11.70;90.60;;;;;;5033811;28;20025;-88
2023/06/06 02:01:37;;;;;;;617.40;586.13;;;11.60;90.90;;;;;;5023478;28;20388;-88
2023/06/06 02:04:02;;;;;;;595.15;565.80;;;11.60;91.00;;;;;;5040046;28;20560;-89
2023/06/06 02:06:29;;;;;;;626.45;595.58;;;11.50;91.30;;;;;;5038316;28;20033;-88
2023/06/06 02:08:55;;;;;;;606.35;576.85;;;11.50;91.20;;;;;;5035171;28;20021;-89
2023/06/06 02:11:23;;;;;;;598.45;569.17;;;11.50;91.50;;;;;;5042425;28;20400;-89
2023/06/06 02:13:50;;;;;;;533.75;510.20;;;11.50;91.60;;;;;;5037914;28;20114;-89
2023/06/06 02:16:17;;;;;;;609.30;580.03;;;11.40;91.90;;;;;;5037853;28;20053;-89
2023/06/06 02:18:44;;;;;;;583.25;555.33;;;11.50;91.70;;;;;;5036450;28;20128;-88
2023/06/06 02:21:12;;;;;;;577.40;548.60;;;11.40;91.50;;;;;;5038280;28;20077;-89
2023/06/06 02:23:38;;;;;;;610.05;580.47;;;11.40;91.50;;;;;;5037027;28;20124;-90
2023/06/06 02:26:03;;;;;;;584.40;557.65;;;11.20;91.80;;;;;;5037987;28;20116;-92
2023/06/06 02:28:30;;;;;;;573.88;546.85;;;11.20;92.00;;;;;;5035498;28;20128;-90
2023/06/06 02:30:56;;;;;;;545.95;520.60;;;11.20;92.20;;;;;;5035996;28;20041;-91
2023/06/06 02:33:22;;;;;;;584.78;558.13;;;11.10;92.40;;;;;;5035949;28;20574;-89
2023/06/06 02:35:49;;;;;;;550.22;524.60;;;11.10;92.30;;;;;;5036521;28;20029;-90
2023/06/06 02:38:15;;;;;;;548.72;523.45;;;11.10;92.40;;;;;;5040199;28;20037;-90
2023/06/06 02:40:41;;;;;;;522.08;498.13;;;11.00;92.30;;;;;;5034745;28;20029;-91
2023/06/06 02:43:06;;;;;;;528.70;505.05;;;11.10;92.50;;;;;;5042404;28;20846;-90
2023/06/06 02:45:32;;;;;;;549.47;524.05;;;11.10;92.30;;;;;;5023294;28;20025;-90
2023/06/06 02:47:57;;;;;;;514.13;491.40;;;11.00;92.40;;;;;;5035072;28;20365;-89
2023/06/06 02:50:24;;;;;;;517.25;493.35;;;10.90;92.40;;;;;;5043659;28;20040;-89
2023/06/06 02:52:51;;;;;;;525.80;501.65;;;10.90;92.40;;;;;;5022223;28;20508;-89
2023/06/06 02:55:17;;;;;;;509.20;486.65;;;10.90;92.60;;;;;;5037490;28;20063;-89
2023/06/06 02:57:42;;;;;;;527.45;503.63;;;10.90;92.80;;;;;;5043748;28;20029;-91
2023/06/06 03:00:08;;;;;;;506.98;484.30;;;10.90;93.10;;;;;;5034267;28;20071;-91
2023/06/06 03:02:35;;;;;;;506.88;484.13;;;10.80;93.20;;;;;;5039017;28;20102;-90
2023/06/06 03:05:04;;;;;;;510.25;486.52;;;10.80;93.50;;;;;;5040172;28;20485;-89
2023/06/06 03:07:32;;;;;;;482.40;461.07;;;10.90;93.80;;;;;;5037097;28;20037;-89
2023/06/06 03:09:57;;;;;;;509.70;486.67;;;10.90;93.80;;;;;;5029515;28;20268;-90
2023/06/06 03:12:23;;;;;;;505.67;482.95;;;10.80;93.80;;;;;;5037375;28;20489;-89
2023/06/06 03:14:48;;;;;;;579.97;551.35;;;10.80;93.90;;;;;;5038523;28;20025;-89
2023/06/06 03:17:14;;;;;;;523.08;499.23;;;10.90;93.80;;;;;;5035024;28;20513;-88
2023/06/06 03:19:40;;;;;;;469.48;448.48;;;10.90;93.90;;;;;;5034191;28;20029;-90
2023/06/06 03:22:06;;;;;;;512.92;489.42;;;10.80;94.00;;;;;;5040294;28;20116;-89
2023/06/06 03:24:33;;;;;;;502.85;481.25;;;10.80;94.00;;;;;;5033479;28;20021;-90
2023/06/06 03:27:00;;;;;;;502.92;481.05;;;10.80;93.80;;;;;;5036364;28;20629;-91
2023/06/06 03:29:25;;;;;;;508.75;486.58;;;10.70;93.80;;;;;;5038244;28;20021;-90
2023/06/06 03:31:51;;;;;;;476.83;455.83;;;10.70;93.70;;;;;;5036058;28;20048;-89
2023/06/06 03:34:17;;;;;;;496.30;474.98;;;10.70;93.60;;;;;;5036889;28;20477;-90
2023/06/06 03:36:43;;;;;;;500.90;479.65;;;10.70;93.50;;;;;;5036296;28;20037;-90
2023/06/06 03:39:08;;;;;;;484.98;463.95;;;10.50;93.00;;;;;;5034042;28;20099;-91
2023/06/06 03:41:34;;;;;;;475.15;454.90;;;10.50;93.50;;;;;;5036711;28;20484;-90
2023/06/06 03:44:00;;;;;;;448.25;429.38;;;10.50;93.60;;;;;;5037625;28;20049;-89
2023/06/06 03:46:26;;;;;;;433.67;415.42;;;10.50;93.50;;;;;;5032000;28;20052;-89
2023/06/06 03:48:51;;;;;;;451.85;432.92;;;10.50;93.60;;;;;;5043019;28;20084;-90
2023/06/06 03:51:17;;;;;;;463.50;443.13;;;10.50;93.70;;;;;;5033690;28;20033;-90
2023/06/06 03:53:43;;;;;;;434.67;416.08;;;10.50;93.70;;;;;;5039243;28;20036;-89
2023/06/06 03:56:08;;;;;;;401.83;385.00;;;10.50;93.50;;;;;;5047183;28;20468;-90
2023/06/06 03:58:36;;;;;;;461.52;442.10;;;10.50;93.70;;;;;;5033153;28;20564;-89
2023/06/06 04:01:02;;;;;;;400.10;383.25;;;10.40;93.80;;;;;;5017700;28;20487;-88
2023/06/06 04:03:27;;;;;;;379.52;364.02;;;10.50;94.00;;;;;;5032419;28;20029;-88
2023/06/06 04:05:53;;;;;;;382.85;367.20;;;10.60;94.00;;;;;;5036328;28;20439;-88
2023/06/06 04:08:19;;;;;;;403.98;386.88;;;10.70;93.80;;;;;;5062754;28;20056;-89
2023/06/06 04:10:45;;;;;;;403.23;386.23;;;10.80;93.60;;;;;;5060670;28;20030;-88
2023/06/06 04:13:11;;;;;;;364.58;349.58;;;10.90;93.70;;;;;;5057362;28;20098;-88
2023/06/06 04:15:36;;;;;;;331.58;318.17;;;10.90;93.80;;;;;;5062237;28;20025;-89
2023/06/06 04:18:03;;;;;;;347.67;333.33;;;11.00;93.80;;;;;;5059734;28;20045;-89
2023/06/06 04:20:32;;;;;;;328.92;315.63;;;11.00;93.90;;;;;;5054268;28;20037;-88
2023/06/06 04:23:00;;;;;;;310.90;298.30;;;11.10;94.00;;;;;;5047726;28;20038;-89
2023/06/06 04:25:26;;;;;;;296.20;283.60;;;11.10;94.00;;;;;;5060448;28;20033;-89
2023/06/06 04:27:52;;;;;;;308.38;295.73;;;11.20;94.00;;;;;;5062415;28;20093;-89
2023/06/06 04:30:22;;;;;;;309.83;297.20;;;11.30;94.10;;;;;;5054789;28;20013;-88
2023/06/06 04:32:48;;;;;;;;;;;11.30;93.80;;;;;;5060949;28;20029;-87
2023/06/06 04:35:14;;;;;;;178.63;172.05;;;11.50;93.80;;;;;;5058955;28;19909;-88
2023/06/06 04:37:40;;;;;;;264.10;253.80;;;11.60;93.30;;;;;;5063745;28;20041;-88
2023/06/06 04:40:08;;;;;;;270.65;259.58;;;11.60;93.10;;;;;;5057652;28;20034;-89
2023/06/06 04:42:35;;;;;;;304.13;291.85;;;11.70;93.30;;;;;;5057801;28;20026;-88
2023/06/06 04:45:03;;;;;;;277.95;267.20;;;11.90;92.70;;;;;;5045332;28;20140;-88
2023/06/06 04:47:32;;;;;;;280.70;269.38;;;11.70;92.80;;;;;;5034407;28;20311;-89
2023/06/06 04:49:58;;;;;;;251.88;241.65;;;11.90;92.90;;;;;;5030568;28;20083;-89
2023/06/06 04:52:24;;;;;;;295.85;283.80;;;11.90;92.50;;;;;;5038446;28;20037;-88
2023/06/06 04:54:51;;;;;;;291.95;280.00;;;12.00;92.60;;;;;;5035385;28;20443;-89
2023/06/06 04:57:17;;;;;;;282.15;270.63;;;12.00;92.50;;;;;;5032591;28;20026;-89
2023/06/06 04:59:50;;;;;;;292.58;280.73;;;12.10;92.30;;;;;;5035680;28;20037;-89
2023/06/06 05:02:16;;;;;;;275.95;264.42;;;12.20;92.10;;;;;;5031302;28;20176;-90
2023/06/06 05:04:42;;;;;;;346.17;331.33;;;12.20;91.80;;;;;;5036084;28;20029;-89
2023/06/06 05:07:08;;;;;;;344.90;330.02;;;12.30;91.70;;;;;;5035568;28;20030;-88
2023/06/06 05:09:34;;;;;;;313.58;300.63;;;12.30;91.40;;;;;;5014576;28;20107;-88
2023/06/06 05:12:00;;;;;;;315.33;302.27;;;12.40;91.10;;;;;;5044352;28;20072;-89
2023/06/06 05:14:26;;;;;;;333.67;319.73;;;12.50;91.40;;;;;;5045700;28;20031;-90
2023/06/06 05:16:53;;;;;;;290.00;277.30;;;12.60;90.90;;;;;;5045194;28;20099;-89
2023/06/06 05:19:19;;;;;;;385.67;369.27;;;12.70;90.60;;;;;;5041510;28;20052;-90
2023/06/06 05:21:45;;;;;;;312.33;299.10;;;12.80;90.30;;;;;;5042421;28;20120;-89
2023/06/06 05:24:11;;;;;;;361.80;346.15;;;12.80;90.30;;;;;;5026764;28;20049;-90
2023/06/06 05:26:37;;;;;;;282.67;270.52;;;12.90;90.30;;;;;;5047613;28;20037;-90
2023/06/06 05:29:02;;;;;;;377.38;361.60;;;12.90;90.10;;;;;;5037375;28;20136;-87
2023/06/06 05:31:28;;;;;;;378.55;362.25;;;13.00;89.20;;;;;;5034728;28;20099;-90
2023/06/06 05:33:55;;;;;;;406.02;388.30;;;13.00;89.20;;;;;;5020696;28;20084;-89
2023/06/06 05:36:21;;;;;;;421.90;403.77;;;13.10;89.30;;;;;;5043151;28;20026;-89
2023/06/06 05:38:46;;;;;;;417.13;399.27;;;13.20;89.50;;;;;;5036819;28;20036;-88
2023/06/06 05:41:13;;;;;;;428.00;409.85;;;13.20;88.60;;;;;;5037288;28;20033;-88
2023/06/06 05:43:39;;;;;;;334.25;319.73;;;13.30;88.50;;;;;;5021801;28;20044;-89
2023/06/06 05:46:05;;;;;;;305.55;292.55;;;13.30;87.90;;;;;;5053143;28;20412;-88
2023/06/06 05:48:32;;;;;;;424.48;406.30;;;13.50;87.80;;;;;;5050131;28;20029;-88
2023/06/06 05:50:57;;;;;;;445.70;426.75;;;13.60;87.10;;;;;;5040517;28;20065;-89
2023/06/06 05:53:24;;;;;;;461.95;441.25;;;13.60;87.10;;;;;;5036668;28;20068;-90
2023/06/06 05:55:50;;;;;;;439.38;420.67;;;13.60;86.50;;;;;;5037225;28;20062;-89
2023/06/06 05:58:15;;;;;;;463.73;444.00;;;13.70;85.60;;;;;;5042309;28;20574;-89
2023/06/06 06:00:41;;;;;;;447.20;428.02;;;13.80;85.40;;;;;;5035804;28;20445;-89
2023/06/06 06:03:08;;;;;;;486.60;464.20;;;13.60;85.20;;;;;;5041932;28;20416;-88
2023/06/06 06:05:34;;;;;;;461.90;441.50;;;13.60;84.70;;;;;;5042178;28;20688;-88
2023/06/06 06:08:01;;;;;;;393.88;377.83;;;13.60;85.20;;;;;;5036966;28;20047;-88
2023/06/06 06:10:27;;;;;;;467.58;447.65;;;13.70;84.70;;;;;;5039305;28;20037;-87
2023/06/06 06:12:53;;;;;;;425.70;407.35;;;13.70;84.50;;;;;;5032627;28;20079;-89
2023/06/06 06:15:18;;;;;;;397.15;379.23;;;13.90;84.40;;;;;;5040443;28;20508;-88
2023/06/06 06:17:45;;;;;;;448.17;428.88;;;14.00;83.50;;;;;;5041302;28;20414;-90
2023/06/06 06:20:13;;;;;;;449.58;430.10;;;14.10;84.30;;;;;;5034868;28;20041;-89
2023/06/06 06:22:39;;;;;;;473.25;452.10;;;14.30;84.00;;;;;;5042681;28;20033;-90
2023/06/06 06:25:08;;;;;;;241.95;232.07;;;14.40;83.90;;;;;;5021930;28;20033;-88
2023/06/06 06:27:37;;;;;;;526.72;502.65;;;14.30;82.00;;;;;;5035347;28;20053;-88
2023/06/06 06:30:04;;;;;;;337.10;322.10;;;14.40;83.50;;;;;;5043271;28;20116;-89
2023/06/06 06:32:35;;;;;;;456.40;436.10;;;14.60;81.90;;;;;;5037806;28;20032;-88
2023/06/06 06:35:02;;;;;;;433.15;413.63;;;14.70;82.40;;;;;;5037916;28;20485;-88
2023/06/06 06:37:29;;;;;;;495.67;472.92;;;14.70;81.20;;;;;;5039263;28;20095;-89
2023/06/06 06:39:58;;;;;;;479.67;457.23;;;14.80;80.70;;;;;;5033173;28;20436;-89
2023/06/06 06:42:25;;;;;;;452.90;432.17;;;14.80;80.90;;;;;;5040142;28;20048;-88
2023/06/06 06:44:52;;;;;;;529.42;504.63;;;14.90;80.20;;;;;;5038091;28;20033;-88
2023/06/06 06:47:18;;;;;;;501.42;478.60;;;15.00;80.90;;;;;;5035924;28;20067;-88
2023/06/06 06:49:44;;;;;;;573.20;545.97;;;15.10;79.50;;;;;;5038782;28;20029;-88
2023/06/06 06:52:15;;;;;;;525.17;500.65;;;15.10;81.40;;;;;;5028461;28;20069;-88
2023/06/06 06:54:54;;;;;;;419.58;400.75;;;15.50;81.00;;;;;;5038904;28;20439;-88
2023/06/06 06:57:20;;;;;;;424.52;404.90;;;15.50;77.60;;;;;;5037585;28;20058;-89
2023/06/06 06:59:48;;;;;;;580.85;552.90;;;15.70;77.60;;;;;;5034335;28;20112;-89
2023/06/06 07:02:14;;;;;;;616.35;585.13;;;15.70;77.40;;;;;;5039271;28;20022;-87
2023/06/06 07:04:40;;;;;;;491.88;468.60;;;15.60;77.80;;;;;;5036675;28;20036;-87
2023/06/06 07:07:06;;;;;;;384.20;367.30;;;15.40;77.10;;;;;;5035939;28;20439;-89
2023/06/06 07:09:32;;;;;;;483.00;461.17;;;15.50;75.80;;;;;;5040920;28;20025;-88
2023/06/06 07:11:58;;;;;;;581.45;554.38;;;15.60;76.20;;;;;;5035413;28;20095;-88
2023/06/06 07:14:25;;;;;;;369.05;353.05;;;15.70;76.20;;;;;;5038828;28;20041;-88
2023/06/06 07:16:51;;;;;;;527.40;502.40;;;15.80;74.80;;;;;;5036731;28;20036;-89
2023/06/06 07:19:17;;;;;;;511.08;487.98;;;15.90;74.90;;;;;;5034385;28;20100;-88
2023/06/06 07:21:43;;;;;;;525.80;501.60;;;16.00;75.30;;;;;;5024936;28;20057;-88
2023/06/06 07:24:09;;;;;;;568.42;541.50;;;16.30;75.60;;;;;;5037217;28;20522;-87
2023/06/06 07:26:35;;;;;;;683.47;640.65;;;16.40;75.00;;;;;;5040974;28;20667;-88
2023/06/06 07:29:00;;;;;;;551.17;525.22;;;16.70;73.10;;;;;;5037400;28;20037;-88
2023/06/06 07:31:26;;;;;;;487.35;465.40;;;16.80;73.50;;;;;;5033075;28;20520;-87
2023/06/06 07:33:52;;;;;;;518.22;493.85;;;16.80;72.10;;;;;;5040948;28;20065;-86
2023/06/06 07:36:18;;;;;;;575.05;547.10;;;16.60;72.60;;;;;;5036437;28;20033;-87
2023/06/06 07:38:44;;;;;;;543.38;518.17;;;16.60;72.30;;;;;;5032286;28;20037;-87
2023/06/06 07:41:10;;;;;;;483.80;462.40;;;16.80;71.00;;;;;;5041091;28;20037;-86
2023/06/06 07:43:35;;;;;;;498.67;475.33;;;16.90;70.40;;;;;;5033214;28;20409;-87
2023/06/06 07:46:01;;;;;;;457.67;437.25;;;16.90;70.60;;;;;;5037638;28;20377;-87
2023/06/06 07:48:27;;;;;;;490.80;468.50;;;16.90;69.00;;;;;;5039788;28;20033;-87
2023/06/06 07:50:54;;;;;;;542.35;517.15;;;16.90;69.10;;;;;;5019627;28;20058;-88
2023/06/06 07:53:20;;;;;;;568.30;541.75;;;17.20;69.70;;;;;;5045046;28;20061;-88
2023/06/06 07:55:46;;;;;;;576.35;549.45;;;17.40;70.10;;;;;;5037352;28;20405;-86
2023/06/06 07:58:12;;;;;;;569.47;542.67;;;17.60;67.30;;;;;;5037004;28;20032;-88
2023/06/06 08:00:42;;;;;;;526.20;501.40;;;17.50;66.20;;;;;;5037836;28;20021;-87
2023/06/06 08:03:09;;;;;;;560.33;534.43;;;17.60;66.20;;;;;;5034380;28;20032;-88
2023/06/06 08:05:36;;;;;;;499.27;474.25;;;17.70;66.30;;;;;;5033102;28;20047;-88
2023/06/06 08:08:02;;;;;;;651.83;617.47;;;17.40;65.10;;;;;;5037312;28;20120;-87
2023/06/06 08:10:28;;;;;;;671.80;635.72;;;17.60;70.20;;;;;;5040120;28;20029;-88
2023/06/06 08:12:54;;;;;;;631.22;600.05;;;17.80;67.90;;;;;;5038308;28;20084;-87
2023/06/06 08:15:19;;;;;;;593.78;565.15;;;18.20;68.10;;;;;;5033230;28;20081;-86
2023/06/06 08:17:45;;;;;;;588.00;559.42;;;18.30;65.20;;;;;;5052648;28;20029;-87
2023/06/06 08:20:11;;;;;;;599.17;569.17;;;18.10;63.50;;;;;;5035087;28;20464;-87
2023/06/06 08:22:40;;;;;;;620.20;589.60;;;18.40;62.50;;;;;;5031314;28;20064;-88
2023/06/06 08:25:07;;;;;;;618.65;586.50;;;18.60;63.30;;;;;;5040532;28;20079;-87
2023/06/06 08:27:34;;;;;;;657.70;623.00;;;18.70;62.10;;;;;;5034873;28;20028;-87
2023/06/06 08:30:03;;;;;;;747.03;702.50;;;18.90;62.70;;;;;;5033551;28;20033;-87
2023/06/06 08:32:30;;;;;;;669.63;632.90;;;18.90;62.20;;;;;;5038307;28;20036;-87
2023/06/06 08:34:56;;;;;;;598.35;567.45;;;18.60;62.00;;;;;;5033278;28;20036;-88
2023/06/06 08:37:21;;;;;;;702.47;661.58;;;19.00;59.80;;;;;;5034058;28;20117;-87
2023/06/06 08:39:47;;;;;;;773.88;726.67;;;19.30;60.70;;;;;;5037476;28;20044;-87
2023/06/06 08:42:17;;;;;;;774.60;727.65;;;19.60;58.30;;;;;;5032282;28;20450;-88
2023/06/06 08:44:44;;;;;;;771.28;724.72;;;19.80;60.50;;;;;;5037876;28;20092;-87
2023/06/06 08:47:11;;;;;;;812.42;759.90;;;20.20;57.40;;;;;;5031517;28;20036;-88
2023/06/06 08:49:37;;;;;;;894.47;832.53;;;20.40;56.80;;;;;;5034559;28;20033;-87
2023/06/06 08:52:05;;;;;;;910.53;849.08;;;20.20;54.20;;;;;;5057724;28;20412;-87
2023/06/06 08:54:32;;;;;;;925.72;860.58;;;20.10;57.80;;;;;;5029931;28;20076;-87
2023/06/06 08:57:07;;;;;;;943.97;877.03;;;20.40;55.40;;;;;;5037802;28;20029;-86
2023/06/06 08:59:36;;;;;;;688.20;637.78;;;20.40;54.20;;;;;;5018995;28;20055;-87
2023/06/06 09:02:03;;;;;;;1243.78;723.90;;;20.40;52.40;;;;;;5039064;28;20546;-87
2023/06/06 09:04:29;;;;;;;1999.90;999.90;;;20.50;52.60;;;;;;5018419;28;20037;-86
2023/06/06 09:06:56;;;;;;;1999.90;999.90;;;20.80;51.70;;;;;;5033425;28;20014;-87
2023/06/06 09:09:23;;;;;;;1999.90;999.90;;;20.80;50.40;;;;;;5034362;28;20030;-86
2023/06/06 09:11:48;;;;;;;1999.90;999.90;;;20.80;49.80;;;;;;5040372;28;20032;-86
2023/06/06 09:14:14;;;;;;;1999.90;999.90;;;20.90;51.30;;;;;;5027521;28;20041;-87
2023/06/06 09:16:41;;;;;;;1999.90;999.90;;;21.20;49.50;;;;;;5037122;28;20117;-87
2023/06/06 09:19:08;;;;;;;1999.90;999.90;;;21.20;50.00;;;;;;5030469;28;20481;-87
2023/06/06 09:21:33;;;;;;;1999.90;999.90;;;21.30;51.70;;;;;;5029448;28;20103;-88
2023/06/06 09:24:00;;;;;;;1999.90;999.90;;;21.70;49.00;;;;;;5040328;28;20029;-86
2023/06/06 09:26:28;;;;;;;1999.90;999.90;;;21.80;50.20;;;;;;5034692;28;20048;-88
2023/06/06 09:28:55;;;;;;;1999.90;999.90;;;21.80;45.80;;;;;;5034323;28;20041;-87
2023/06/06 09:31:25;;;;;;;1999.90;999.90;;;21.50;47.90;;;;;;5037399;28;20045;-87
2023/06/06 09:33:55;;;;;;;1999.90;999.90;;;21.40;49.00;;;;;;5031957;28;20034;-87
2023/06/06 09:36:27;;;;;;;1999.90;999.90;;;21.40;45.90;;;;;;5037951;28;20403;-87
2023/06/06 09:38:54;;;;;;;1999.90;999.90;;;21.60;46.40;;;;;;5030096;28;20041;-87
2023/06/06 09:41:21;;;;;;;1999.90;999.90;;;21.50;43.10;;;;;;5040027;28;20428;-87
2023/06/06 09:43:47;;;;;;;1999.90;999.90;;;21.50;45.90;;;;;;5018882;28;20037;-87
2023/06/06 09:46:17;;;;;;;1999.90;999.90;;;22.00;42.80;;;;;;5027479;28;20041;-85
2023/06/06 09:48:55;;;;;;;1999.90;999.90;;;21.90;44.20;;;;;;5039033;28;20041;-87
2023/06/06 09:51:21;;;;;;;1999.90;999.90;;;22.20;43.00;;;;;;5017610;28;20038;-87
2023/06/06 09:53:53;;;;;;;1999.90;999.90;;;22.10;42.50;;;;;;5048236;28;20037;-87
2023/06/06 09:56:23;;;;;;;1999.90;999.90;;;21.80;43.50;;;;;;5039490;28;20025;-87
2023/06/06 09:58:52;;;;;;;;;;;21.80;43.50;;;;;;5017371;28;20033;-87
2023/06/06 10:01:18;;;;;;;1999.90;999.90;;;22.10;43.40;;;;;;5037917;28;20372;-88
2023/06/06 10:03:44;;;;;;;1999.90;999.90;;;22.10;44.50;;;;;;5018496;28;20481;-87
2023/06/06 10:06:10;;;;;;;1999.90;999.90;;;22.20;42.80;;;;;;5035743;28;20037;-87
2023/06/06 10:08:38;;;;;;;1999.90;999.90;;;22.50;41.30;;;;;;5042281;28;20562;-87
2023/06/06 10:11:05;;;;;;;1999.90;999.90;;;22.60;42.70;;;;;;5036056;28;20113;-88
2023/06/06 10:13:32;;;;;;;1999.90;999.90;;;22.50;41.70;;;;;;5038011;28;20114;-88
2023/06/06 10:15:58;;;;;;;1999.90;999.90;;;22.70;41.10;;;;;;5038527;28;20033;-87
2023/06/06 10:18:25;;;;;;;1999.90;999.90;;;23.10;39.60;;;;;;5037400;28;20050;-85
2023/06/06 10:20:53;;;;;;;1999.90;999.90;;;23.10;43.00;;;;;;5037475;28;20428;-88
2023/06/06 10:23:19;;;;;;;1999.90;999.90;;;23.30;41.50;;;;;;5037243;28;20042;-86
2023/06/06 10:25:46;;;;;;;1999.90;999.90;;;23.40;41.40;;;;;;5034842;28;20044;-86
2023/06/06 10:28:44;;;;;;;1999.90;999.90;;;23.70;39.40;;;;;;5042598;28;20111;-87
2023/06/06 10:31:15;;;;;;;1999.90;999.90;;;23.40;39.50;;;;;;5035490;28;20207;-88
2023/06/06 10:33:58;;;;;;;1999.90;999.90;;;23.40;40.10;;;;;;5040736;28;20155;-86
2023/06/06 10:36:23;;;;;;;1999.90;999.90;;;23.50;41.90;;;;;;5036507;28;20516;-86
2023/06/06 10:39:24;;;;;;;1999.90;999.90;;;24.00;40.30;;;;;;5032238;28;20037;-86
2023/06/06 10:42:07;;;;;;;1999.90;999.90;;;23.30;38.80;;;;;;5033581;28;20022;-86
2023/06/06 10:44:37;;;;;;;1999.90;999.90;;;23.50;40.90;;;;;;5035777;28;20029;-86
2023/06/06 10:47:21;;;;;;;1999.90;999.90;;;23.50;38.30;;;;;;5040218;28;20025;-86
2023/06/06 10:50:09;;;;;;;1999.90;999.90;;;23.30;39.00;;;;;;5036179;28;20022;-86
2023/06/06 10:53:06;;;;;;;1999.90;999.90;;;23.60;41.00;;;;;;5034170;28;20034;-87
2023/06/06 10:55:32;;;;;;;1999.90;999.90;;;24.70;36.50;;;;;;5040020;28;20039;-86
2023/06/06 10:58:10;;;;;;;1999.90;999.90;;;24.50;35.20;;;;;;5037220;28;20033;-87
2023/06/06 11:00:43;;;;;;;1999.90;999.90;;;24.90;35.40;;;;;;5035334;28;20037;-87
2023/06/06 11:03:10;;;;;;;1999.90;999.90;;;25.40;33.70;;;;;;5012824;28;20515;-87
2023/06/06 11:06:01;;;;;;;1999.90;999.90;;;25.00;33.90;;;;;;5052451;28;20049;-87
2023/06/06 11:08:35;;;;;;;1999.90;999.90;;;25.60;32.20;;;;;;5038510;28;20026;-87
2023/06/06 11:11:17;;;;;;;1999.90;999.90;;;26.20;31.30;;;;;;5033916;28;20442;-87
2023/06/06 11:13:56;;;;;;;1999.90;999.90;;;25.90;32.60;;;;;;5043777;28;20132;-86
2023/06/06 11:16:29;;;;;;;1999.90;999.90;;;25.90;32.50;;;;;;5042086;28;20067;-86
2023/06/06 11:19:09;;;;;;;1999.90;999.90;;;26.10;31.40;;;;;;5024134;28;20033;-87
2023/06/06 11:21:36;;;;;;;1999.90;999.90;;;26.60;31.20;;;;;;5042925;28;20061;-87
2023/06/06 11:24:03;;;;;;;1999.90;999.90;;;26.70;30.00;;;;;;5042118;28;20083;-86
2023/06/06 11:26:29;;;;;;;1999.90;999.90;;;26.10;30.50;;;;;;5044856;28;20056;-88
2023/06/06 11:28:55;;;;;;;1999.90;999.90;;;27.20;30.50;;;;;;5037588;28;20492;-87
2023/06/06 11:31:26;;;;;;;1999.90;999.90;;;28.00;28.40;;;;;;5037329;28;20400;-87
2023/06/06 11:33:52;;;;;;;1999.90;999.90;;;27.30;29.10;;;;;;5038511;28;20083;-87
2023/06/06 11:36:21;;;;;;;1999.90;999.90;;;27.60;28.40;;;;;;5040627;28;20038;-86
2023/06/06 11:38:46;;;;;;;1999.90;999.90;;;28.40;27.10;;;;;;5017340;28;20087;-87
2023/06/06 11:41:12;;;;;;;1999.90;999.90;;;28.30;27.10;;;;;;5045675;28;20041;-87
2023/06/06 11:43:48;;;;;;;1999.90;999.90;;;28.30;27.60;;;;;;5044679;28;20025;-89
2023/06/06 11:46:15;;;;;;;1999.90;999.90;;;28.30;26.90;;;;;;5020100;28;20378;-86
2023/06/06 11:48:41;;;;;;;1999.90;999.90;;;28.40;26.90;;;;;;5036760;28;20033;-87
2023/06/06 11:51:15;;;;;;;1999.90;999.90;;;28.70;25.80;;;;;;5042142;28;20033;-87
2023/06/06 11:53:41;;;;;;;1999.90;999.90;;;28.90;25.40;;;;;;5031461;28;20052;-87
2023/06/06 11:56:17;;;;;;;1999.90;999.90;;;29.80;25.60;;;;;;5034574;28;20029;-86
2023/06/06 11:58:43;;;;;;;1999.90;999.90;;;29.60;25.40;;;;;;5035864;28;20042;-86
2023/06/06 12:01:10;;;;;;;1999.90;999.90;;;29.90;24.50;;;;;;5033641;28;20843;-86
2023/06/06 12:03:40;;;;;;;1999.90;999.90;;;31.20;22.70;;;;;;5035736;28;20025;-83
2023/06/06 12:06:07;;;;;;;1999.90;999.90;;;29.20;25.30;;;;;;5039548;28;20504;-83
2023/06/06 12:08:37;;;;;;;1999.90;999.90;;;29.70;24.40;;;;;;5033017;28;20044;-86